createdAt,value
2019-05-29T00:00:46.029Z,1.87
2019-05-29T00:03:15.401Z,2.10
2019-05-29T00:05:44.706Z,2.10
2019-05-29T00:08:14.670Z,2.40
2019-05-29T00:10:44.088Z,2.47
2019-05-29T00:13:14.398Z,2.40
2019-05-29T00:15:43.867Z,2.53
2019-05-29T00:18:14.458Z,2.67
2019-05-29T00:20:43.920Z,3.43
2019-05-29T00:23:14.557Z,2.70
2019-05-29T00:25:44.009Z,3.60
2019-05-29T00:28:13.311Z,3.83
2019-05-29T00:30:42.682Z,3.90
2019-05-29T00:33:12.190Z,4.47
2019-05-29T00:35:41.609Z,4.00
2019-05-29T00:38:10.904Z,3.47
2019-05-29T00:40:41.184Z,3.50
2019-05-29T00:43:11.196Z,2.90
2019-05-29T00:45:40.594Z,3.10
2019-05-29T00:48:09.899Z,3.10
2019-05-29T00:50:39.200Z,2.97
2019-05-29T00:53:08.570Z,3.10
2019-05-29T00:55:37.867Z,3.20
2019-05-29T00:58:07.167Z,3.03
2019-05-29T01:00:36.473Z,3.33
2019-05-29T01:03:05.839Z,3.30
2019-05-29T01:05:35.143Z,3.37
2019-05-29T01:08:04.507Z,3.50
2019-05-29T01:10:33.809Z,3.50
2019-05-29T01:13:03.106Z,3.60
2019-05-29T01:15:32.406Z,4.03
2019-05-29T01:18:01.776Z,3.90
2019-05-29T01:20:31.081Z,3.77
2019-05-29T01:23:00.383Z,3.90
2019-05-29T01:25:29.755Z,3.97
2019-05-29T01:27:59.061Z,3.87
2019-05-29T01:30:28.354Z,4.10
2019-05-29T01:32:57.655Z,3.80
2019-05-29T01:35:26.951Z,4.33
2019-05-29T01:37:56.255Z,4.10
2019-05-29T01:40:29.129Z,3.80
2019-05-29T01:42:56.720Z,4.33
2019-05-29T01:45:26.023Z,3.87
2019-05-29T01:47:55.323Z,4.43
2019-05-29T01:50:24.620Z,4.30
2019-05-29T01:52:53.991Z,4.90
2019-05-29T01:55:23.796Z,4.93
2019-05-29T01:57:53.174Z,4.90
2019-05-29T02:00:24.116Z,4.63
2019-05-29T02:02:53.692Z,4.50
2019-05-29T02:05:24.033Z,4.70
2019-05-29T02:07:53.468Z,4.23
2019-05-29T02:10:23.999Z,4.63
2019-05-29T02:12:53.615Z,4.60
2019-05-29T02:15:31.713Z,4.40
2019-05-29T02:17:55.126Z,4.97
2019-05-29T02:20:25.401Z,5.00
2019-05-29T02:22:55.007Z,4.73
2019-05-29T02:25:24.454Z,5.30
2019-05-29T02:27:53.751Z,4.73
2019-05-29T02:30:26.073Z,5.23
2019-05-29T02:32:54.287Z,4.77
2019-05-29T02:35:24.917Z,5.23
2019-05-29T02:37:54.670Z,5.77
2019-05-29T02:40:25.921Z,5.40
2019-05-29T02:42:55.331Z,5.43
2019-05-29T02:45:45.759Z,5.60
2019-05-29T02:47:55.707Z,5.93
2019-05-29T02:50:26.451Z,6.17
2019-05-29T02:52:55.997Z,6.53
2019-05-29T02:55:26.772Z,6.10
2019-05-29T02:57:56.363Z,6.47
2019-05-29T03:00:49.187Z,6.57
2019-05-29T03:03:18.487Z,7.03
2019-05-29T03:05:48.268Z,6.40
2019-05-29T03:08:17.571Z,6.43
2019-05-29T03:10:47.308Z,6.77
2019-05-29T03:13:18.320Z,6.23
2019-05-29T03:16:05.733Z,6.20
2019-05-29T03:18:19.456Z,6.63
2019-05-29T03:20:48.751Z,6.57
2019-05-29T03:23:26.445Z,6.47
2019-05-29T03:25:56.036Z,6.43
2019-05-29T03:28:25.730Z,6.80
2019-05-29T03:30:55.110Z,6.67
2019-05-29T03:33:28.537Z,6.23
2019-05-29T03:35:56.374Z,6.90
2019-05-29T03:38:26.057Z,6.07
2019-05-29T03:40:55.459Z,6.90
2019-05-29T03:43:26.071Z,6.70
2019-05-29T03:45:55.690Z,6.30
2019-05-29T03:48:25.987Z,6.33
2019-05-29T03:50:56.740Z,7.10
2019-05-29T03:53:27.083Z,7.17
2019-05-29T03:55:56.520Z,6.83
2019-05-29T03:58:26.384Z,6.70
2019-05-29T04:00:55.815Z,6.00
2019-05-29T04:03:26.766Z,5.90
2019-05-29T04:05:56.469Z,6.13
2019-05-29T04:08:27.248Z,6.50
2019-05-29T04:10:56.831Z,5.67
2019-05-29T04:13:27.479Z,5.03
2019-05-29T04:15:58.908Z,5.37
2019-05-29T04:18:29.725Z,5.37
2019-05-29T04:21:00.356Z,5.43
2019-05-29T04:23:34.105Z,4.70
2019-05-29T04:26:03.691Z,4.70
2019-05-29T04:28:34.889Z,4.67
2019-05-29T04:31:04.375Z,4.93
2019-05-29T04:33:34.926Z,4.37
2019-05-29T04:36:04.734Z,4.63
2019-05-29T04:38:36.165Z,4.27
2019-05-29T04:41:05.029Z,4.43
2019-05-29T04:43:35.656Z,4.07
2019-05-29T04:46:05.785Z,3.93
2019-05-29T04:48:36.133Z,4.10
2019-05-29T04:51:06.083Z,3.73
2019-05-29T04:53:35.598Z,3.40
2019-05-29T04:56:05.263Z,3.50
2019-05-29T04:58:34.823Z,3.33
2019-05-29T05:01:04.251Z,3.60
2019-05-29T05:03:33.544Z,3.07
2019-05-29T05:06:02.850Z,3.43
2019-05-29T05:08:33.239Z,3.13
2019-05-29T05:11:03.011Z,3.20
2019-05-29T05:13:33.436Z,3.23
2019-05-29T05:16:03.703Z,3.30
2019-05-29T05:18:33.971Z,3.03
2019-05-29T05:21:03.279Z,3.27
2019-05-29T05:23:32.571Z,2.83
2019-05-29T05:26:01.891Z,2.63
2019-05-29T05:28:32.168Z,3.47
2019-05-29T05:31:01.555Z,2.90
2019-05-29T05:33:30.862Z,2.60
2019-05-29T05:36:00.171Z,2.57
2019-05-29T05:38:30.498Z,2.83
2019-05-29T05:40:59.934Z,2.83
2019-05-29T05:43:29.239Z,3.37
2019-05-29T05:45:58.536Z,2.80
2019-05-29T05:48:28.615Z,2.80
2019-05-29T05:50:57.909Z,2.57
2019-05-29T05:53:27.218Z,2.70
2019-05-29T05:55:56.512Z,2.90
2019-05-29T05:58:25.808Z,2.53
2019-05-29T06:00:55.115Z,2.83
2019-05-29T06:03:24.420Z,2.50
2019-05-29T06:05:53.729Z,2.63
2019-05-29T06:08:23.031Z,2.40
2019-05-29T06:10:52.332Z,2.60
2019-05-29T06:13:21.630Z,2.30
2019-05-29T06:15:50.927Z,3.30
2019-05-29T06:18:21.803Z,2.80
2019-05-29T06:20:51.415Z,2.30
2019-05-29T06:23:20.733Z,2.73
2019-05-29T06:25:50.030Z,2.33
2019-05-29T06:28:19.330Z,2.43
2019-05-29T06:30:48.631Z,2.90
2019-05-29T06:33:17.935Z,2.50
2019-05-29T06:35:47.246Z,2.40
2019-05-29T06:38:16.543Z,2.80
2019-05-29T06:40:45.912Z,2.50
2019-05-29T06:43:23.708Z,2.53
2019-05-29T06:45:53.439Z,2.90
2019-05-29T06:48:58.830Z,3.00
2019-05-29T06:51:00.638Z,3.13
2019-05-29T06:53:30.040Z,3.17
2019-05-29T06:56:01.098Z,3.20
2019-05-29T06:58:30.460Z,3.63
2019-05-29T07:01:00.864Z,2.40
2019-05-29T07:03:30.235Z,3.07
2019-05-29T07:05:59.539Z,3.60
2019-05-29T07:08:38.635Z,2.87
2019-05-29T07:10:59.840Z,3.17
2019-05-29T07:13:29.143Z,2.67
2019-05-29T07:15:58.456Z,3.20
2019-05-29T07:18:30.114Z,3.00
2019-05-29T07:20:59.415Z,3.17
2019-05-29T07:23:28.725Z,2.97
2019-05-29T07:25:58.028Z,3.87
2019-05-29T07:28:27.330Z,2.83
2019-05-29T07:31:01.891Z,3.67
2019-05-29T07:33:27.665Z,3.17
2019-05-29T07:35:56.960Z,2.60
2019-05-29T07:38:26.261Z,3.17
2019-05-29T07:40:55.580Z,2.87
2019-05-29T07:43:24.884Z,3.30
2019-05-29T07:45:54.185Z,3.20
2019-05-29T07:48:23.492Z,3.47
2019-05-29T07:51:06.358Z,3.73
2019-05-29T07:53:23.847Z,3.03
2019-05-29T07:55:53.227Z,3.10
2019-05-29T07:58:22.599Z,2.80
2019-05-29T08:01:09.752Z,2.40
2019-05-29T08:03:23.031Z,2.93
2019-05-29T08:05:53.383Z,3.13
2019-05-29T08:08:22.804Z,3.10
2019-05-29T08:10:52.126Z,3.10
2019-05-29T08:13:21.501Z,2.63
2019-05-29T08:16:02.005Z,1.97
2019-05-29T08:18:22.013Z,2.40
2019-05-29T08:20:51.307Z,1.90
2019-05-29T08:23:20.608Z,2.10
2019-05-29T08:25:49.917Z,2.10
2019-05-29T08:28:19.218Z,2.20
2019-05-29T08:30:55.520Z,1.80
2019-05-29T08:33:19.513Z,1.87
2019-05-29T08:35:57.563Z,2.17
2019-05-29T08:38:19.826Z,1.87
2019-05-29T08:40:49.525Z,2.00
2019-05-29T08:43:18.925Z,1.90
2019-05-29T08:45:49.641Z,2.03
2019-05-29T08:48:19.104Z,1.70
2019-05-29T08:50:48.416Z,1.97
2019-05-29T08:53:18.127Z,1.60
2019-05-29T08:55:48.281Z,1.90
2019-05-29T08:58:18.092Z,1.83
2019-05-29T09:00:51.976Z,1.63
2019-05-29T09:03:18.468Z,1.93
2019-05-29T09:06:04.293Z,1.50
2019-05-29T09:08:18.760Z,1.53
2019-05-29T09:10:49.469Z,1.20
2019-05-29T09:13:19.023Z,1.53
2019-05-29T09:15:48.322Z,1.77
2019-05-29T09:18:17.630Z,1.73
2019-05-29T09:21:02.087Z,1.53
2019-05-29T09:23:18.871Z,1.40
2019-05-29T09:25:48.371Z,1.70
2019-05-29T09:28:18.478Z,1.50
2019-05-29T09:30:47.682Z,1.60
2019-05-29T09:33:18.744Z,1.67
2019-05-29T09:35:48.108Z,2.03
2019-05-29T09:38:18.669Z,1.97
2019-05-29T09:40:48.296Z,2.00
2019-05-29T09:43:18.646Z,1.97
2019-05-29T09:45:48.656Z,2.10
2019-05-29T09:48:20.294Z,2.00
2019-05-29T09:50:50.757Z,1.70
2019-05-29T09:53:20.385Z,1.80
2019-05-29T09:55:49.679Z,2.47
2019-05-29T09:58:18.998Z,2.00
2019-05-29T10:01:05.024Z,1.73
2019-05-29T10:03:19.433Z,2.30
2019-05-29T10:05:48.820Z,1.80
2019-05-29T10:08:18.893Z,2.03
2019-05-29T10:10:48.288Z,2.03
2019-05-29T10:13:17.680Z,2.27
2019-05-29T10:15:46.989Z,2.33
2019-05-29T10:18:31.571Z,1.60
2019-05-29T10:20:47.309Z,2.20
2019-05-29T10:23:19.919Z,1.87
2019-05-29T10:25:47.682Z,2.20
2019-05-29T10:28:17.053Z,1.90
2019-05-29T10:30:46.432Z,2.40
2019-05-29T10:33:17.144Z,2.30
2019-05-29T10:35:49.063Z,2.60
2019-05-29T10:38:17.485Z,2.30
2019-05-29T10:40:56.898Z,2.50
2019-05-29T10:43:33.269Z,2.67
2019-05-29T10:45:49.942Z,2.70
2019-05-29T10:48:19.287Z,2.40
2019-05-29T10:50:51.003Z,2.43
2019-05-29T10:53:19.597Z,2.10
2019-05-29T10:55:50.526Z,2.00
2019-05-29T10:58:19.932Z,2.40
2019-05-29T11:00:49.232Z,2.20
2019-05-29T11:03:18.603Z,2.33
2019-05-29T11:05:47.972Z,2.10
2019-05-29T11:08:17.411Z,1.87
2019-05-29T11:10:47.841Z,2.17
2019-05-29T11:13:17.315Z,2.10
2019-05-29T11:15:46.648Z,2.40
2019-05-29T11:18:16.018Z,1.87
2019-05-29T11:20:45.430Z,1.80
2019-05-29T11:23:14.860Z,1.90
2019-05-29T11:25:44.162Z,2.40
2019-05-29T11:28:13.463Z,2.60
2019-05-29T11:30:42.759Z,2.33
2019-05-29T11:33:12.075Z,2.13
2019-05-29T11:35:57.311Z,2.03
2019-05-29T11:38:12.376Z,4.80
2019-05-29T11:40:41.822Z,2.23
2019-05-29T11:43:11.195Z,2.70
2019-05-29T11:45:40.588Z,3.30
2019-05-29T11:48:09.909Z,2.90
2019-05-29T11:50:39.258Z,2.17
2019-05-29T11:53:08.666Z,1.77
2019-05-29T11:55:38.034Z,2.50
2019-05-29T11:58:07.865Z,2.20
2019-05-29T12:00:37.227Z,2.20
2019-05-29T12:03:06.927Z,3.47
2019-05-29T12:05:36.356Z,2.30
2019-05-29T12:08:05.799Z,2.30
2019-05-29T12:10:35.115Z,2.80
2019-05-29T12:13:04.558Z,2.40
2019-05-29T12:15:33.927Z,2.00
2019-05-29T12:18:21.964Z,2.53
2019-05-29T12:20:34.255Z,2.30
2019-05-29T12:23:26.474Z,1.87
2019-05-29T12:25:34.576Z,1.97
2019-05-29T12:28:04.143Z,2.00
2019-05-29T12:30:34.600Z,1.87
2019-05-29T12:33:04.471Z,1.73
2019-05-29T12:35:33.805Z,1.57
2019-05-29T12:38:03.537Z,1.50
2019-05-29T12:40:32.899Z,1.70
2019-05-29T12:43:03.751Z,1.50
2019-05-29T12:45:33.194Z,1.53
2019-05-29T12:48:06.653Z,1.33
2019-05-29T12:50:34.511Z,1.80
2019-05-29T12:53:04.370Z,1.47
2019-05-29T12:55:33.690Z,1.37
2019-05-29T12:58:04.441Z,1.63
2019-05-29T13:00:35.180Z,1.90
2019-05-29T13:03:05.264Z,1.67
2019-05-29T13:05:34.715Z,1.67
2019-05-29T13:08:05.172Z,1.40
2019-05-29T13:10:34.735Z,1.50
2019-05-29T13:13:09.998Z,1.67
2019-05-29T13:15:35.172Z,1.60
2019-05-29T13:18:09.278Z,1.60
2019-05-29T13:20:35.707Z,1.33
2019-05-29T13:23:07.204Z,1.57
2019-05-29T13:25:36.409Z,1.70
2019-05-29T13:28:06.167Z,1.50
2019-05-29T13:30:35.496Z,1.40
2019-05-29T13:33:07.412Z,1.20
2019-05-29T13:35:36.763Z,1.10
2019-05-29T13:38:07.211Z,1.47
2019-05-29T13:40:36.995Z,1.30
2019-05-29T13:43:14.459Z,1.20
2019-05-29T13:45:37.326Z,1.40
2019-05-29T13:48:07.491Z,1.50
2019-05-29T13:50:36.911Z,1.30
2019-05-29T13:53:07.448Z,1.30
2019-05-29T13:55:36.909Z,1.40
2019-05-29T13:58:06.220Z,1.30
2019-05-29T14:00:41.397Z,1.47
2019-05-29T14:03:10.829Z,1.40
2019-05-29T14:05:40.138Z,1.30
2019-05-29T14:08:09.512Z,1.30
2019-05-29T14:10:38.932Z,1.93
2019-05-29T14:13:09.351Z,3.13
2019-05-29T14:15:38.835Z,4.90
2019-05-29T14:18:08.979Z,3.57
2019-05-29T14:20:38.483Z,1.50
2019-05-29T14:23:07.786Z,3.00
2019-05-29T14:25:37.103Z,1.70
2019-05-29T14:28:06.779Z,1.47
2019-05-29T14:30:36.563Z,1.10
2019-05-29T14:33:06.772Z,1.50
2019-05-29T14:35:36.667Z,1.40
2019-05-29T14:38:10.747Z,2.50
2019-05-29T14:40:36.978Z,2.00
2019-05-29T14:43:11.333Z,1.00
2019-05-29T14:45:38.418Z,4.20
2019-05-29T14:48:08.185Z,1.63
2019-05-29T14:50:37.599Z,1.30
2019-05-29T14:53:07.388Z,1.40
2019-05-29T14:55:37.079Z,1.33
2019-05-29T14:58:07.680Z,1.53
2019-05-29T15:00:37.152Z,1.07
2019-05-29T15:03:07.375Z,2.97
2019-05-29T15:05:36.763Z,1.20
2019-05-29T15:08:06.147Z,1.40
2019-05-29T15:10:35.449Z,1.30
2019-05-29T15:13:06.399Z,1.50
2019-05-29T15:15:35.901Z,1.90
2019-05-29T15:18:06.853Z,1.40
2019-05-29T15:20:36.319Z,1.47
2019-05-29T15:23:07.408Z,1.47
2019-05-29T15:25:36.911Z,1.20
2019-05-29T15:28:06.244Z,1.00
2019-05-29T15:30:35.684Z,1.40
2019-05-29T15:33:06.261Z,1.03
2019-05-29T15:35:35.725Z,1.20
2019-05-29T15:38:05.041Z,2.23
2019-05-29T15:40:34.344Z,2.73
2019-05-29T15:43:03.730Z,1.17
2019-05-29T15:45:33.095Z,1.10
2019-05-29T15:48:02.398Z,1.03
2019-05-29T15:50:31.757Z,1.17
2019-05-29T15:53:01.115Z,0.93
2019-05-29T15:55:34.540Z,1.10
2019-05-29T15:58:01.507Z,1.90
2019-05-29T16:00:30.812Z,0.93
2019-05-29T16:03:00.484Z,1.30
2019-05-29T16:05:29.823Z,1.10
2019-05-29T16:07:59.128Z,0.90
2019-05-29T16:10:28.443Z,0.90
2019-05-29T16:12:57.762Z,1.10
2019-05-29T16:15:27.683Z,1.10
2019-05-29T16:17:56.995Z,1.10
2019-05-29T16:20:26.458Z,1.13
2019-05-29T16:22:57.127Z,1.30
2019-05-29T16:25:39.394Z,0.90
2019-05-29T16:27:58.405Z,0.90
2019-05-29T16:30:27.860Z,0.87
2019-05-29T16:32:58.523Z,5.17
2019-05-29T16:35:27.828Z,1.57
2019-05-29T16:37:57.162Z,1.53
2019-05-29T16:40:26.513Z,1.20
2019-05-29T16:42:55.815Z,0.90
2019-05-29T16:45:25.119Z,1.00
2019-05-29T16:47:54.431Z,1.80
2019-05-29T16:50:24.057Z,1.00
2019-05-29T16:52:53.350Z,1.30
2019-05-29T16:55:23.120Z,0.90
2019-05-29T16:57:52.532Z,1.20
2019-05-29T17:00:23.497Z,1.30
2019-05-29T17:02:52.876Z,1.00
2019-05-29T17:05:24.169Z,1.00
2019-05-29T17:07:54.030Z,1.10
2019-05-29T17:10:37.134Z,0.90
2019-05-29T17:13:07.051Z,1.10
2019-05-29T17:15:37.631Z,0.80
2019-05-29T17:18:07.007Z,0.67
2019-05-29T17:20:44.435Z,0.90
2019-05-29T17:23:15.177Z,1.10
2019-05-29T17:25:44.920Z,1.30
2019-05-29T17:28:15.010Z,1.20
2019-05-29T17:30:44.476Z,1.23
2019-05-29T17:33:15.134Z,1.13
2019-05-29T17:35:44.578Z,1.30
2019-05-29T17:38:14.886Z,1.30
2019-05-29T17:40:44.338Z,1.20
2019-05-29T17:43:13.774Z,1.30
2019-05-29T17:45:43.074Z,1.10
2019-05-29T17:48:12.378Z,1.37
2019-05-29T17:50:41.826Z,1.17
2019-05-29T17:53:11.191Z,1.00
2019-05-29T17:55:40.573Z,1.37
2019-05-29T17:58:09.875Z,1.10
2019-05-29T18:00:39.257Z,1.10
2019-05-29T18:03:08.627Z,1.87
2019-05-29T18:05:37.971Z,1.43
2019-05-29T18:08:07.436Z,1.40
2019-05-29T18:10:36.807Z,1.10
2019-05-29T18:13:06.461Z,1.30
2019-05-29T18:15:35.831Z,1.30
2019-05-29T18:18:05.436Z,1.40
2019-05-29T18:20:34.751Z,1.40
2019-05-29T18:23:04.211Z,1.20
2019-05-29T18:25:33.587Z,1.20
2019-05-29T18:28:03.059Z,1.10
2019-05-29T18:30:32.427Z,1.20
2019-05-29T18:33:01.797Z,1.20
2019-05-29T18:35:31.101Z,1.80
2019-05-29T18:38:01.656Z,1.50
2019-05-29T18:40:31.015Z,1.40
2019-05-29T18:43:00.319Z,1.30
2019-05-29T18:45:29.629Z,0.97
2019-05-29T18:47:58.937Z,1.10
2019-05-29T18:50:29.526Z,1.40
2019-05-29T18:52:58.917Z,1.13
2019-05-29T18:55:28.991Z,1.00
2019-05-29T18:58:01.817Z,1.20
2019-05-29T19:00:29.767Z,1.30
2019-05-29T19:02:59.147Z,1.40
2019-05-29T19:05:29.684Z,1.30
2019-05-29T19:07:59.287Z,1.50
2019-05-29T19:10:29.788Z,1.40
2019-05-29T19:12:59.210Z,1.30
2019-05-29T19:15:28.608Z,1.33
2019-05-29T19:17:58.188Z,1.37
2019-05-29T19:20:28.561Z,1.50
2019-05-29T19:22:58.011Z,1.50
2019-05-29T19:25:27.319Z,1.37
2019-05-29T19:27:56.766Z,1.50
2019-05-29T19:30:26.941Z,1.27
2019-05-29T19:32:56.351Z,1.30
2019-05-29T19:35:25.724Z,1.40
2019-05-29T19:37:55.028Z,1.40
2019-05-29T19:40:24.343Z,1.43
2019-05-29T19:42:54.772Z,1.30
2019-05-29T19:45:24.722Z,1.40
2019-05-29T19:47:54.112Z,1.60
2019-05-29T19:50:24.589Z,1.67
2019-05-29T19:52:54.007Z,1.67
2019-05-29T19:55:23.340Z,1.53
2019-05-29T19:57:56.448Z,1.60
2019-05-29T20:00:25.989Z,1.50
2019-05-29T20:02:55.495Z,1.63
2019-05-29T20:05:24.879Z,1.70
2019-05-29T20:07:58.463Z,1.57
2019-05-29T20:10:27.765Z,1.30
2019-05-29T20:12:57.091Z,1.20
2019-05-29T20:15:27.739Z,1.50
2019-05-29T20:17:57.177Z,1.40
2019-05-29T20:20:26.479Z,1.30
2019-05-29T20:22:55.797Z,1.40
2019-05-29T20:25:25.165Z,1.30
2019-05-29T20:28:06.075Z,1.40
2019-05-29T20:30:25.457Z,1.30
2019-05-29T20:32:54.767Z,1.20
2019-05-29T20:35:24.139Z,1.30
2019-05-29T20:37:53.439Z,1.20
2019-05-29T20:40:22.806Z,1.60
2019-05-29T20:42:52.107Z,1.30
2019-05-29T20:45:21.407Z,1.60
2019-05-29T20:47:50.715Z,1.10
2019-05-29T20:50:20.871Z,1.43
2019-05-29T20:52:50.176Z,1.60
2019-05-29T20:55:19.905Z,1.13
2019-05-29T20:57:49.308Z,1.30
2019-05-29T21:00:19.992Z,1.40
2019-05-29T21:02:49.295Z,1.27
2019-05-29T21:05:18.844Z,1.80
2019-05-29T21:07:48.140Z,1.80
2019-05-29T21:10:18.226Z,1.60
2019-05-29T21:12:47.860Z,1.60
2019-05-29T21:15:17.651Z,1.70
2019-05-29T21:17:46.947Z,1.50
2019-05-29T21:20:16.587Z,1.33
2019-05-29T21:22:45.960Z,1.67
2019-05-29T21:25:18.887Z,1.50
2019-05-29T21:27:49.340Z,1.70
2019-05-29T21:30:20.860Z,1.73
2019-05-29T21:32:51.197Z,2.30
2019-05-29T21:35:20.494Z,1.80
2019-05-29T21:37:49.791Z,1.83
2019-05-29T21:40:19.257Z,1.80
2019-05-29T21:42:48.618Z,2.00
2019-05-29T21:45:18.080Z,1.90
2019-05-29T21:47:47.406Z,1.93
2019-05-29T21:50:16.843Z,1.97
2019-05-29T21:52:46.142Z,1.43
2019-05-29T21:55:16.057Z,1.60
2019-05-29T21:57:48.363Z,2.07
2019-05-29T22:00:34.904Z,1.60
2019-05-29T22:03:05.263Z,1.50
2019-05-29T22:05:34.627Z,1.73
2019-05-29T22:08:04.254Z,1.60
2019-05-29T22:10:34.041Z,1.63
2019-05-29T22:13:03.490Z,1.60
2019-05-29T22:15:32.792Z,1.60
2019-05-29T22:18:02.172Z,1.60
2019-05-29T22:20:31.499Z,1.90
2019-05-29T22:23:02.754Z,1.70
2019-05-29T22:25:34.397Z,1.50
2019-05-29T22:28:02.945Z,1.53
2019-05-29T22:30:32.448Z,1.40
2019-05-29T22:33:02.800Z,1.47
2019-05-29T22:35:32.136Z,1.60
2019-05-29T22:38:01.878Z,1.40
2019-05-29T22:40:32.255Z,1.53
2019-05-29T22:43:01.942Z,1.60
2019-05-29T22:45:31.410Z,1.47
2019-05-29T22:48:02.108Z,1.60
2019-05-29T22:50:31.602Z,1.90
2019-05-29T22:53:02.000Z,1.77
2019-05-29T22:55:31.639Z,1.60
2019-05-29T22:58:02.110Z,1.67
2019-05-29T23:00:31.604Z,1.70
2019-05-29T23:03:00.903Z,1.70
2019-05-29T23:05:30.279Z,2.00
2019-05-29T23:08:00.321Z,1.70
2019-05-29T23:10:29.759Z,1.70
2019-05-29T23:13:02.546Z,1.63
2019-05-29T23:15:30.704Z,1.80
2019-05-29T23:18:00.667Z,1.70
2019-05-29T23:20:31.008Z,1.83
2019-05-29T23:23:00.758Z,1.60
2019-05-29T23:25:31.187Z,1.67
2019-05-29T23:28:01.074Z,1.80
2019-05-29T23:30:30.955Z,1.90
2019-05-29T23:33:01.152Z,1.70
2019-05-29T23:35:30.557Z,1.93
2019-05-29T23:37:59.855Z,1.63
2019-05-29T23:40:29.174Z,1.70
2019-05-29T23:42:59.453Z,1.57
2019-05-29T23:45:28.863Z,1.60
2019-05-29T23:47:58.169Z,1.70
2019-05-29T23:50:27.471Z,2.00
2019-05-29T23:52:57.916Z,1.60
2019-05-29T23:55:27.273Z,1.63
2019-05-29T23:57:57.586Z,1.83
